Time;durP1;ratioP1;P1;durP2;ratioP2;P2;SDS_P1;SDS_P2;PMS_P1;PMS_P2;Temp;Humidity;BMP_temperature;BMP_pressure;BME280_temperature;BME280_humidity;BME280_pressure;Samples;Min_cycle;Max_cycle;Signal;HPM_P1;HPM_P2
2022/06/20 00:00:36;;;;;;;3.45;1.50;;;;;;;21.91;46.34;98829.31;5011943;28;20056;-77
2022/06/20 00:03:02;;;;;;;2.63;1.40;;;;;;;21.93;46.29;98824.63;4995605;28;20040;-77
2022/06/20 00:05:29;;;;;;;3.58;1.40;;;;;;;21.91;46.14;98817.88;5011511;28;20041;-77
2022/06/20 00:07:55;;;;;;;2.67;1.67;;;;;;;21.88;45.99;98831.56;5011949;28;20382;-78
2022/06/20 00:10:21;;;;;;;1.40;1.23;;;;;;;21.87;46.17;98828.06;5011934;28;20080;-78
2022/06/20 00:12:47;;;;;;;1.65;1.23;;;;;;;21.93;46.07;98829.13;4995652;28;20477;-78
2022/06/20 00:15:29;;;;;;;2.58;1.42;;;;;;;21.94;46.05;98822.81;5012976;28;20036;-78
2022/06/20 00:17:55;;;;;;;1.98;1.40;;;;;;;21.91;46.06;98820.53;4997004;28;20175;-77
2022/06/20 00:20:21;;;;;;;6.20;1.30;;;;;;;21.86;46.14;98813.13;5011658;28;20462;-77
2022/06/20 00:22:46;;;;;;;2.97;1.58;;;;;;;21.87;46.16;98814.78;5012001;28;20034;-78
2022/06/20 00:25:12;;;;;;;2.58;1.63;;;;;;;21.90;46.04;98805.59;5011783;28;20026;-78
2022/06/20 00:27:37;;;;;;;2.42;1.50;;;;;;;21.82;46.15;98807.38;5011743;28;20025;-78
2022/06/20 00:30:04;;;;;;;2.17;1.52;;;;;;;21.83;46.10;98802.88;5011787;28;20085;-78
2022/06/20 00:32:29;;;;;;;2.33;1.50;;;;;;;21.82;46.41;98806.53;4995232;28;20030;-79
2022/06/20 00:34:55;;;;;;;3.90;1.20;;;;;;;21.84;46.23;98802.69;5011215;28;20038;-78
2022/06/20 00:37:20;;;;;;;2.97;1.50;;;;;;;21.82;46.34;98798.56;5011658;28;20049;-78
2022/06/20 00:39:49;;;;;;;1.85;1.45;;;;;;;21.82;46.29;98794.09;5011583;28;20448;-78
2022/06/20 00:42:15;;;;;;;2.75;1.60;;;;;;;21.75;46.70;98801.16;5011674;28;20030;-78
2022/06/20 00:44:46;;;;;;;4.28;1.70;;;;;;;21.75;46.63;98787.88;5011471;28;20030;-78
2022/06/20 00:47:17;;;;;;;4.28;1.40;;;;;;;21.76;46.50;98794.84;4995024;28;20037;-77
2022/06/20 00:49:54;;;;;;;3.00;1.58;;;;;;;21.78;46.62;98792.00;4995143;28;20029;-78
2022/06/20 00:52:48;;;;;;;5.57;1.60;;;;;;;21.79;46.62;98786.50;5012790;28;20037;-78
2022/06/20 00:55:33;;;;;;;4.65;1.60;;;;;;;21.71;46.64;98786.59;4971162;28;20414;-78
2022/06/20 00:58:37;;;;;;;2.00;1.42;;;;;;;21.73;46.87;98779.28;4971526;28;20034;-78
2022/06/20 01:01:02;;;;;;;2.72;1.70;;;;;;;21.69;47.01;98784.13;4970945;28;20042;-78
2022/06/20 01:03:34;;;;;;;1.90;1.40;;;;;;;21.65;47.12;98777.56;4971084;28;20042;-76
2022/06/20 01:06:36;;;;;;;3.13;1.65;;;;;;;21.67;46.97;98774.72;4971594;28;20513;-77
2022/06/20 01:09:08;;;;;;;1.83;1.48;;;;;;;21.68;47.14;98776.38;4897573;29;20116;-77
2022/06/20 01:11:50;;;;;;;3.72;1.55;;;;;;;21.65;47.03;98774.91;4898721;29;20056;-77
2022/06/20 01:14:35;;;;;;;2.35;1.60;;;;;;;21.57;47.30;98769.72;4899025;29;20052;-77
2022/06/20 01:17:07;;;;;;;1.83;1.50;;;;;;;21.60;47.23;98772.00;4882915;29;20179;-78
2022/06/20 01:19:41;;;;;;;2.35;1.58;;;;;;;21.56;47.24;98772.56;4898626;29;20666;-78
2022/06/20 01:22:28;;;;;;;2.80;1.55;;;;;;;21.59;47.40;98766.88;4898748;29;20043;-77
2022/06/20 01:25:35;;;;;;;2.42;1.65;;;;;;;21.53;47.36;98762.28;4898686;29;20100;-78
2022/06/20 01:28:01;;;;;;;2.00;1.60;;;;;;;21.57;47.33;98766.22;4898144;29;20032;-77
2022/06/20 01:30:29;;;;;;;2.20;1.70;;;;;;;21.59;47.22;98761.56;4882685;29;20381;-77
2022/06/20 01:32:55;;;;;;;1.83;1.50;;;;;;;21.59;47.38;98766.88;4931578;29;20130;-78
2022/06/20 01:38:08;;;;;;;2.10;1.45;;;;;;;21.51;47.35;98762.50;4936223;29;20038;-79
2022/06/20 01:40:34;;;;;;;1.85;1.52;;;;;;;21.55;47.54;98762.94;4920074;29;20148;-72
2022/06/20 01:42:59;;;;;;;4.25;1.73;;;;;;;21.50;47.08;98756.34;4936076;29;20085;-72
2022/06/20 01:48:11;;;;;;;2.78;1.55;;;;;;;21.53;47.36;98751.69;5000841;28;20088;-72
2022/06/20 01:50:36;;;;;;;2.72;1.60;;;;;;;21.47;47.70;98761.16;5014087;28;20041;-72
2022/06/20 01:53:03;;;;;;;3.08;1.80;;;;;;;21.41;47.66;98753.94;5014294;28;20129;-72
2022/06/20 01:55:29;;;;;;;2.42;1.70;;;;;;;21.42;47.72;98753.75;5014177;28;20105;-72
2022/06/20 01:58:05;;;;;;;2.45;1.80;;;;;;;21.42;47.80;98748.44;4997725;28;20120;-72
2022/06/20 02:00:30;;;;;;;2.25;1.50;;;;;;;21.34;47.95;98740.59;5014520;28;20079;-72
2022/06/20 02:02:58;;;;;;;3.58;1.60;;;;;;;21.34;48.02;98745.91;5014118;28;20038;-72
2022/06/20 02:05:27;;;;;;;2.42;1.50;;;;;;;21.30;47.96;98744.63;5014339;28;20033;-72
2022/06/20 02:07:54;;;;;;;3.63;1.48;;;;;;;21.34;48.00;98748.56;4993921;28;20054;-72
2022/06/20 02:10:23;;;;;;;2.10;1.80;;;;;;;21.33;47.79;98742.44;4978198;28;20038;-72
2022/06/20 02:12:49;;;;;;;2.70;1.55;;;;;;;21.35;47.70;98747.56;4978336;28;20038;-72
2022/06/20 02:15:20;;;;;;;4.53;1.65;;;;;;;21.36;47.75;98745.72;5001137;28;20088;-72
2022/06/20 02:17:47;;;;;;;2.50;1.40;;;;;;;21.36;47.82;98743.06;4987984;28;20048;-72
2022/06/20 02:20:16;;;;;;;3.38;1.80;;;;;;;21.32;48.04;98742.63;5000994;28;20027;-72
2022/06/20 02:22:41;;;;;;;2.83;1.75;;;;;;;21.33;47.68;98738.94;4985143;28;20046;-72
2022/06/20 02:25:13;;;;;;;4.05;1.88;;;;;;;21.32;47.86;98737.31;5003180;28;20033;-71
2022/06/20 02:27:43;;;;;;;4.45;1.77;;;;;;;21.34;47.70;98737.94;4986752;28;20045;-71
2022/06/20 02:30:10;;;;;;;2.80;1.50;;;;;;;21.35;47.75;98741.41;5005459;28;20026;-71
2022/06/20 02:32:37;;;;;;;4.07;1.90;;;;;;;21.44;48.20;98730.53;4997297;28;20026;-70
2022/06/20 02:35:04;;;;;;;2.92;1.92;;;;;;;21.59;47.96;98733.16;5013438;28;20469;-71
2022/06/20 02:37:30;;;;;;;2.67;1.85;;;;;;;21.93;47.01;98722.84;4997511;28;20485;-71
2022/06/20 02:39:58;;;;;;;53.85;2.58;;;;;;;22.27;46.59;98718.63;4997047;28;20033;-73
2022/06/20 02:42:30;;;;;;;29.67;2.20;;;;;;;22.33;45.94;98717.88;4997335;28;20030;-73
2022/06/20 02:44:56;;;;;;;30.35;2.35;;;;;;;22.36;46.42;98717.50;4997184;28;20037;-73
2022/06/20 02:47:22;;;;;;;29.63;2.33;;;;;;;22.33;46.16;98725.84;4996953;28;20026;-71
2022/06/20 02:49:47;;;;;;;23.60;2.17;;;;;;;22.29;46.84;98720.06;5012766;28;20476;-72
2022/06/20 02:52:16;;;;;;;15.35;2.17;;;;;;;22.26;46.28;98717.00;5013415;28;20459;-71
2022/06/20 02:54:42;;;;;;;9.32;2.00;;;;;;;22.12;46.95;98716.88;5012972;28;20038;-72
2022/06/20 02:57:11;;;;;;;21.27;2.13;;;;;;;22.11;47.25;98712.59;4996660;28;20397;-70
2022/06/20 02:59:40;;;;;;;13.25;1.88;;;;;;;;;;5012893;28;20030;-72
2022/06/20 03:02:08;;;;;;;10.05;1.70;;;;;;;22.24;45.94;98714.53;5012908;28;20030;-70
2022/06/20 03:04:35;;;;;;;10.80;2.03;;;;;;;22.57;45.17;98717.44;4997280;28;20091;-70
2022/06/20 03:07:07;;;;;;;5.50;1.80;;;;;;;22.89;44.08;98717.00;5012902;28;20481;-70
2022/06/20 03:09:34;;;;;;;4.55;1.83;;;;;;;23.26;43.23;98723.75;4996268;28;20141;-74
2022/06/20 03:12:00;;;;;;;10.95;1.63;;;;;;;23.82;43.26;98716.50;4996683;28;20026;-70
2022/06/20 03:14:30;;;;;;;5.88;1.77;;;;;;;24.30;41.76;98724.31;5012677;28;20469;-70
2022/06/20 03:16:56;;;;;;;6.55;1.40;;;;;;;24.64;40.65;98714.47;4996543;28;20505;-73
2022/06/20 03:19:27;;;;;;;3.97;1.42;;;;;;;25.19;39.89;98715.91;5013011;28;20030;-70
2022/06/20 03:21:54;;;;;;;2.25;1.70;;;;;;;25.66;39.21;98715.72;5012449;28;20501;-71
2022/06/20 03:24:21;;;;;;;4.47;1.38;;;;;;;26.13;37.92;98713.53;4996404;28;20030;-75
2022/06/20 03:26:46;;;;;;;1.73;1.30;;;;;;;26.49;37.52;98709.31;4996496;28;20036;-75
2022/06/20 03:29:13;;;;;;;3.03;1.50;;;;;;;26.83;36.36;98710.59;5012066;28;20045;-73
2022/06/20 03:31:38;;;;;;;2.28;1.30;;;;;;;27.24;35.93;98709.06;4995657;28;20034;-74
2022/06/20 03:34:04;;;;;;;2.05;1.50;;;;;;;27.76;35.35;98718.50;5013610;28;20026;-78
2022/06/20 03:36:29;;;;;;;2.78;1.65;;;;;;;28.12;34.50;98706.81;5012486;28;20030;-76
2022/06/20 03:38:55;;;;;;;1.90;1.30;;;;;;;28.49;33.43;98708.44;4995978;28;20041;-76
2022/06/20 03:41:23;;;;;;;3.15;1.40;;;;;;;28.93;32.72;98710.75;5011655;28;20041;-76
2022/06/20 03:44:04;;;;;;;4.13;1.75;;;;;;;29.37;31.83;98709.22;4996025;28;20034;-76
2022/06/20 03:46:33;;;;;;;3.35;1.80;;;;;;;29.76;31.43;98716.63;4995802;28;20034;-75
2022/06/20 03:49:09;;;;;;;4.30;1.48;;;;;;;30.21;30.56;98707.69;4995274;28;20111;-75
2022/06/20 03:51:44;;;;;;;2.92;1.48;;;;;;;30.67;29.78;98705.69;4996997;28;20033;-75
2022/06/20 03:54:20;;;;;;;5.03;1.55;;;;;;;31.10;28.98;98705.16;5013278;28;20038;-75
2022/06/20 03:57:00;;;;;;;2.65;1.50;;;;;;;31.60;28.25;98711.38;5012439;28;20026;-76
2022/06/20 03:59:46;;;;;;;1.92;1.27;;;;;;;32.22;27.12;98701.91;5012115;28;20033;-76
2022/06/20 04:02:30;;;;;;;2.55;1.30;;;;;;;32.67;26.38;98700.56;4995348;28;20041;-76
2022/06/20 04:05:00;;;;;;;4.10;1.33;;;;;;;33.23;25.44;98699.19;5013521;28;20034;-76
2022/06/20 04:07:37;;;;;;;5.75;1.40;;;;;;;33.69;24.74;98697.38;5013009;28;20018;-76
2022/06/20 04:13:13;;;;;;;3.58;1.25;;;;;;;34.73;23.63;98687.25;5012455;28;20045;-75
2022/06/20 04:15:47;;;;;;;2.45;1.40;;;;;;;35.26;22.80;98689.47;5012147;28;20030;-75
2022/06/20 04:18:27;;;;;;;4.90;1.33;;;;;;;35.73;22.46;98685.31;5012268;28;20058;-75
2022/06/20 04:20:55;;;;;;;3.38;1.50;;;;;;;36.14;22.10;98695.06;5011933;28;20037;-75
2022/06/20 04:23:40;;;;;;;5.35;1.20;;;;;;;36.58;21.35;98688.63;5012782;28;20103;-75
2022/06/20 04:26:23;;;;;;;6.93;1.40;;;;;;;37.12;20.38;98692.84;5011854;28;20034;-75
2022/06/20 04:28:54;;;;;;;5.15;1.30;;;;;;;37.58;19.84;98693.31;5012907;28;20041;-75
2022/06/20 04:31:46;;;;;;;5.15;1.35;;;;;;;38.01;20.19;98691.25;5013233;28;20472;-75
2022/06/20 04:34:42;;;;;;;2.60;1.30;;;;;;;38.50;19.65;98689.00;5011882;28;20030;-75
2022/06/20 04:37:38;;;;;;;3.22;1.50;;;;;;;38.91;19.15;98690.13;5011790;28;20084;-75
2022/06/20 04:40:26;;;;;;;2.90;1.30;;;;;;;39.43;18.43;98687.06;5011459;28;20042;-76
2022/06/20 04:43:01;;;;;;;3.13;1.20;;;;;;;39.89;17.82;98691.41;5010587;28;20041;-76
2022/06/20 04:45:32;;;;;;;3.92;1.40;;;;;;;40.19;18.01;98694.50;4995896;28;20049;-76
2022/06/20 04:48:04;;;;;;;3.70;1.25;;;;;;;40.54;17.15;98691.94;5012574;28;20057;-76
2022/06/20 04:50:31;;;;;;;3.35;1.55;;;;;;;40.94;17.57;98699.28;5011172;28;20041;-76
2022/06/20 04:52:59;;;;;;;6.75;1.50;;;;;;;41.14;17.20;98682.25;5012570;28;20404;-74
2022/06/20 04:55:26;;;;;;;2.97;1.48;;;;;;;41.55;16.24;98691.13;4995351;28;20034;-74
2022/06/20 04:57:51;;;;;;;2.22;1.20;;;;;;;41.98;16.45;98687.50;5011273;28;20443;-75
2022/06/20 05:00:22;;;;;;;7.65;1.30;;;;;;;42.11;16.03;98694.75;5012332;28;20033;-75
2022/06/20 05:02:49;;;;;;;5.35;1.30;;;;;;;42.77;14.89;98687.22;4995318;28;20026;-75
2022/06/20 05:05:18;;;;;;;3.58;1.00;;;;;;;43.05;14.90;98692.19;4995185;28;20466;-75
2022/06/20 05:07:45;;;;;;;4.47;1.05;;;;;;;43.43;14.37;98686.59;4994337;28;20136;-75
2022/06/20 05:10:21;;;;;;;3.33;0.90;;;;;;;43.58;14.96;98687.09;4995294;28;20022;-73
2022/06/20 05:13:00;;;;;;;4.55;1.38;;;;;;;44.04;14.45;98680.47;5011204;28;20026;-74
2022/06/20 05:15:36;;;;;;;3.33;1.00;;;;;;;44.32;14.24;98682.59;4995713;28;20033;-75
2022/06/20 05:18:08;;;;;;;2.80;1.00;;;;;;;44.87;13.65;98685.91;5011138;28;20033;-75
2022/06/20 05:20:34;;;;;;;2.55;0.90;;;;;;;45.25;13.18;98686.63;4995076;28;20030;-75
2022/06/20 05:23:05;;;;;;;4.18;0.90;;;;;;;45.42;13.02;98685.53;4994746;28;20034;-74
2022/06/20 05:25:32;;;;;;;2.60;1.10;;;;;;;45.65;12.85;98686.56;5011287;28;20034;-73
2022/06/20 05:28:02;;;;;;;5.10;0.83;;;;;;;45.93;13.20;98684.94;4994677;28;20121;-75
2022/06/20 05:30:31;;;;;;;3.03;0.75;;;;;;;46.23;12.31;98699.94;4995148;28;20128;-75
2022/06/20 05:32:58;;;;;;;3.88;1.00;;;;;;;46.45;12.74;98685.84;5010940;28;20046;-75
2022/06/20 05:35:25;;;;;;;2.35;0.90;;;;;;;46.65;12.07;98686.72;5012077;28;20095;-73
2022/06/20 05:38:01;;;;;;;3.35;1.00;;;;;;;46.87;12.32;98683.28;4977955;28;20041;-76
2022/06/20 05:40:30;;;;;;;1.73;1.00;;;;;;;46.96;11.75;98680.34;4994766;28;20120;-74
2022/06/20 05:42:56;;;;;;;2.58;1.00;;;;;;;47.24;11.07;98684.84;4994999;28;20165;-74
2022/06/20 05:45:22;;;;;;;5.05;0.90;;;;;;;47.34;11.36;98683.50;4994761;28;20150;-74
2022/06/20 05:47:53;;;;;;;1.80;1.00;;;;;;;47.45;11.48;98687.28;4994511;28;20026;-75
2022/06/20 05:50:39;;;;;;;2.65;0.90;;;;;;;47.44;11.33;98680.13;4994404;28;20025;-74
2022/06/20 05:53:09;;;;;;;2.45;0.98;;;;;;;47.46;11.75;98670.31;5011310;28;20033;-74
2022/06/20 05:55:45;;;;;;;4.88;1.20;;;;;;;47.48;11.42;98679.03;5012487;28;20088;-74
2022/06/20 05:58:14;;;;;;;;;;;;;;;47.21;11.30;98685.56;5014529;28;20072;-74
2022/06/20 06:00:39;;;;;;;7.50;1.70;;;;;;;47.46;11.02;98683.31;5014069;28;19914;-75
2022/06/20 06:03:10;;;;;;;3.97;1.60;;;;;;;47.47;10.95;98682.16;4997733;28;20080;-75
2022/06/20 06:05:40;;;;;;;4.53;1.77;;;;;;;47.43;11.01;98678.53;4998697;28;20044;-74
2022/06/20 06:08:32;;;;;;;7.22;1.92;;;;;;;47.42;11.06;98671.41;5014059;28;20041;-75
2022/06/20 06:11:24;;;;;;;9.10;1.80;;;;;;;47.21;11.14;98678.09;4974195;28;20035;-76
2022/06/20 06:14:02;;;;;;;4.10;1.77;;;;;;;47.33;10.77;98679.13;4973723;28;20042;-75
2022/06/20 06:16:46;;;;;;;3.95;1.90;;;;;;;47.19;10.63;98672.13;4958141;28;20046;-74
2022/06/20 06:19:30;;;;;;;6.78;2.33;;;;;;;47.14;10.90;98675.19;4974013;28;20031;-74
2022/06/20 06:22:00;;;;;;;8.38;2.80;;;;;;;47.00;10.85;98670.16;4973776;28;20062;-75
2022/06/20 06:24:26;;;;;;;6.82;2.85;;;;;;;47.00;11.52;98672.13;4974317;28;20031;-76
2022/06/20 06:26:56;;;;;;;8.23;3.07;;;;;;;47.02;10.88;98667.03;4957580;28;20034;-75
2022/06/20 06:29:50;;;;;;;15.15;3.40;;;;;;;46.75;11.26;98659.38;4973843;28;20042;-75
2022/06/20 06:32:20;;;;;;;11.00;2.95;;;;;;;46.85;11.45;98657.19;4972224;28;20038;-75
2022/06/20 06:35:00;;;;;;;7.03;2.80;;;;;;;46.82;11.44;98652.41;4973839;28;20043;-75
2022/06/20 06:37:33;;;;;;;7.22;2.83;;;;;;;46.67;11.39;98646.56;4958079;28;20654;-75
2022/06/20 06:40:03;;;;;;;8.75;2.28;;;;;;;46.65;11.35;98643.34;4973562;28;20140;-75
2022/06/20 06:42:29;;;;;;;10.50;2.63;;;;;;;46.61;11.22;98645.25;4973551;28;20043;-77
2022/06/20 06:44:54;;;;;;;4.23;2.00;;;;;;;46.54;11.31;98643.13;4973464;28;20037;-76
2022/06/20 06:47:23;;;;;;;8.40;1.93;;;;;;;46.53;11.34;98637.94;4973497;28;20045;-74
2022/06/20 06:49:56;;;;;;;5.75;1.63;;;;;;;46.47;11.16;98642.94;5013172;28;20053;-75
2022/06/20 06:52:27;;;;;;;6.82;1.58;;;;;;;46.41;11.33;98641.59;4981575;28;20049;-75
2022/06/20 06:54:58;;;;;;;4.07;1.30;;;;;;;46.35;11.46;98634.75;5014438;28;20022;-76
2022/06/20 06:57:26;;;;;;;6.28;1.58;;;;;;;46.23;11.58;98635.69;5014199;28;20509;-76
2022/06/20 06:59:56;;;;;;;7.22;1.25;;;;;;;46.09;10.88;98630.59;5013899;28;20461;-77
2022/06/20 07:02:22;;;;;;;4.32;1.10;;;;;;;45.99;11.41;98633.88;5012888;28;20026;-75
2022/06/20 07:05:00;;;;;;;5.05;1.08;;;;;;;45.78;11.64;98623.91;5012998;28;20030;-75
2022/06/20 07:07:33;;;;;;;4.03;0.90;;;;;;;45.76;11.08;98625.41;5012833;28;20050;-77
2022/06/20 07:09:59;;;;;;;6.78;1.10;;;;;;;45.64;11.59;98623.53;4997414;28;20042;-74
2022/06/20 07:12:28;;;;;;;2.27;0.97;;;;;;;45.50;11.36;98619.25;5012951;28;20521;-75
2022/06/20 07:15:15;;;;;;;3.03;0.80;;;;;;;45.31;11.18;98627.34;5013061;28;20049;-76
2022/06/20 07:17:45;;;;;;;1.75;0.50;;;;;;;45.24;11.25;98621.66;5014009;28;20028;-76
2022/06/20 07:20:11;;;;;;;2.72;0.80;;;;;;;45.09;10.60;98615.75;4996829;28;20058;-76
2022/06/20 07:22:38;;;;;;;8.33;0.80;;;;;;;44.92;10.82;98618.78;4996320;28;20053;-76
2022/06/20 07:25:03;;;;;;;;;;;;;;;44.63;11.04;98615.19;5013015;28;20080;-75
2022/06/20 07:27:43;;;;;;;3.43;0.93;;;;;;;44.49;11.55;98604.53;5014015;28;19909;-76
2022/06/20 07:30:30;;;;;;;2.25;0.60;;;;;;;44.32;11.52;98616.56;4980602;28;20033;-76
2022/06/20 07:33:23;;;;;;;5.40;0.70;;;;;;;44.14;11.63;98604.97;5012257;28;20441;-75
2022/06/20 07:35:50;;;;;;;1.63;0.60;;;;;;;44.08;11.91;98606.34;5026220;28;20030;-75
2022/06/20 07:38:21;;;;;;;3.17;0.77;;;;;;;43.93;12.03;98607.03;5012396;28;20087;-77
2022/06/20 07:40:48;;;;;;;3.05;0.90;;;;;;;43.79;12.38;98615.59;4996430;28;20109;-77
2022/06/20 07:43:45;;;;;;;4.20;0.82;;;;;;;43.58;12.59;98599.97;5012581;28;20492;-77
2022/06/20 07:46:16;;;;;;;2.88;0.90;;;;;;;43.47;12.63;98599.59;5002253;28;20405;-77
2022/06/20 07:48:42;;;;;;;3.55;1.00;;;;;;;43.37;13.00;98589.03;4996305;28;20496;-76
2022/06/20 07:51:14;;;;;;;1.97;0.83;;;;;;;43.19;13.06;98588.38;4996077;28;20045;-77
2022/06/20 07:53:45;;;;;;;4.38;0.90;;;;;;;42.98;13.26;98588.41;5012395;28;20147;-77
2022/06/20 07:56:23;;;;;;;6.45;1.15;;;;;;;42.82;13.13;98585.44;4996817;28;20425;-78
2022/06/20 07:58:54;;;;;;;4.57;1.00;;;;;;;42.66;13.36;98588.00;4995847;28;20057;-76
2022/06/20 08:01:31;;;;;;;3.85;1.40;;;;;;;42.47;13.49;98583.72;5012189;28;20101;-77
2022/06/20 08:04:02;;;;;;;4.47;1.10;;;;;;;42.36;13.34;98579.78;4996205;28;20026;-78
2022/06/20 08:06:32;;;;;;;3.17;1.00;;;;;;;42.22;13.41;98587.44;4996007;28;20029;-77
2022/06/20 08:09:06;;;;;;;3.30;1.10;;;;;;;42.02;13.57;98581.56;5011800;28;20069;-78
2022/06/20 08:11:51;;;;;;;2.38;0.90;;;;;;;41.91;13.71;98580.34;5012047;28;20022;-76
2022/06/20 08:14:34;;;;;;;2.07;0.90;;;;;;;41.74;13.91;98578.47;5005744;28;20061;-76
2022/06/20 08:17:02;;;;;;;4.03;1.10;;;;;;;41.53;13.70;98579.13;5011797;28;20040;-76
2022/06/20 08:19:28;;;;;;;3.75;1.20;;;;;;;41.38;14.16;98568.69;5012968;28;20030;-76
2022/06/20 08:21:58;;;;;;;3.17;1.10;;;;;;;41.25;14.33;98566.94;4995546;28;20058;-75
2022/06/20 08:24:41;;;;;;;3.85;1.10;;;;;;;41.15;14.57;98570.78;4995520;28;20026;-77
2022/06/20 08:27:08;;;;;;;4.13;0.98;;;;;;;41.09;14.46;98563.88;4995238;28;20072;-75
2022/06/20 08:29:49;;;;;;;2.83;1.13;;;;;;;41.01;14.53;98560.03;4995303;28;20500;-75
2022/06/20 08:32:33;;;;;;;3.72;0.95;;;;;;;40.84;14.65;98558.88;4997254;28;20091;-76
2022/06/20 08:35:47;;;;;;;2.83;1.02;;;;;;;40.65;14.73;98559.19;5012936;28;20069;-78
2022/06/20 08:38:18;;;;;;;8.82;1.00;;;;;;;40.18;15.17;98549.94;4972051;28;20038;-75
2022/06/20 08:41:02;;;;;;;4.93;1.13;;;;;;;40.03;15.48;98557.44;4971431;28;20027;-76
2022/06/20 08:43:42;;;;;;;3.47;0.90;;;;;;;39.42;15.97;98547.00;4955613;28;20051;-76
2022/06/20 08:46:29;;;;;;;2.80;0.93;;;;;;;38.83;17.27;98546.25;4971959;28;20474;-76
2022/06/20 08:49:13;;;;;;;;;;;;;;;38.32;17.40;98554.44;4972016;28;20529;-76
2022/06/20 08:51:41;;;;;;;1.90;1.15;;;;;;;37.76;17.78;98552.78;4971795;28;19922;-75
2022/06/20 08:54:32;;;;;;;2.00;0.88;;;;;;;37.25;18.04;98554.47;4971566;28;20027;-77
2022/06/20 08:57:06;;;;;;;3.35;1.10;;;;;;;36.80;19.26;98546.72;4971396;28;20106;-75
2022/06/20 08:59:56;;;;;;;3.30;0.80;;;;;;;36.34;20.33;98550.00;4971809;28;20167;-76
2022/06/20 09:02:30;;;;;;;2.15;1.00;;;;;;;36.00;20.74;98556.38;4955252;28;20058;-77
2022/06/20 09:05:11;;;;;;;4.88;1.10;;;;;;;35.67;21.27;98548.81;4971502;28;20043;-77
2022/06/20 09:07:42;;;;;;;1.40;1.00;;;;;;;35.58;21.50;98550.56;4954978;28;20058;-76
2022/06/20 09:10:15;;;;;;;3.10;1.02;;;;;;;35.85;21.67;98558.19;4993238;28;20540;-76
2022/06/20 09:13:08;;;;;;;2.08;0.85;;;;;;;35.72;21.59;98552.56;5008223;28;20511;-77
2022/06/20 09:15:42;;;;;;;2.38;1.10;;;;;;;35.83;21.42;98554.91;5008967;28;20482;-78
2022/06/20 09:18:35;;;;;;;3.05;0.88;;;;;;;35.78;21.20;98556.91;4993173;28;20026;-76
2022/06/20 09:21:32;;;;;;;3.25;0.80;;;;;;;35.90;20.96;98548.34;4992657;28;20056;-76
2022/06/20 09:24:00;;;;;;;2.72;0.68;;;;;;;35.64;20.65;98551.28;4992082;28;20030;-76
2022/06/20 09:26:32;;;;;;;2.25;0.73;;;;;;;35.48;19.89;98548.72;4992973;28;20065;-78
2022/06/20 09:29:07;;;;;;;2.60;0.63;;;;;;;35.36;19.50;98552.91;4993303;28;20037;-76
2022/06/20 09:31:53;;;;;;;3.55;0.90;;;;;;;35.17;19.98;98552.75;4995266;28;20048;-75
2022/06/20 09:34:52;;;;;;;2.15;1.00;;;;;;;34.95;20.17;98546.69;4995636;28;20437;-76
2022/06/20 09:37:30;;;;;;;2.25;0.80;;;;;;;34.75;20.24;98542.22;4997054;28;20034;-77
2022/06/20 09:39:55;;;;;;;2.65;0.90;;;;;;;34.57;20.54;98535.53;4996700;28;20030;-77
2022/06/20 09:42:35;;;;;;;5.20;0.80;;;;;;;34.38;20.61;98540.78;5011072;28;20031;-77
2022/06/20 09:45:00;;;;;;;4.68;1.02;;;;;;;34.19;20.73;98529.72;4994596;28;20109;-75
2022/06/20 09:47:32;;;;;;;1.75;0.77;;;;;;;34.24;20.56;98528.91;5011187;28;20034;-76
2022/06/20 09:50:07;;;;;;;2.55;0.95;;;;;;;34.28;20.55;98529.16;4994692;28;20031;-75
2022/06/20 09:53:10;;;;;;;2.42;1.00;;;;;;;34.14;20.70;98527.00;5011074;28;20066;-75
2022/06/20 09:55:50;;;;;;;2.92;0.93;;;;;;;33.99;20.46;98522.47;4996052;28;20033;-80
2022/06/20 09:58:34;;;;;;;1.92;0.90;;;;;;;33.80;20.13;98521.47;4996018;28;20402;-77
2022/06/20 10:01:16;;;;;;;3.33;1.00;;;;;;;33.69;20.59;98526.06;4980055;28;20089;-76
2022/06/20 10:03:53;;;;;;;1.48;0.93;;;;;;;33.75;20.43;98533.09;4978927;28;20058;-76
2022/06/20 10:06:19;;;;;;;2.85;0.93;;;;;;;33.70;20.12;98524.97;4996010;28;20109;-75
2022/06/20 10:09:22;;;;;;;4.07;0.85;;;;;;;33.77;20.05;98517.41;5008207;28;20077;-77
2022/06/20 10:11:55;;;;;;;3.05;1.00;;;;;;;33.92;19.84;98515.72;4955088;28;20046;-76
2022/06/20 10:14:27;;;;;;;4.10;0.90;;;;;;;33.97;19.75;98513.00;4939101;29;20114;-77
2022/06/20 10:16:58;;;;;;;7.28;0.98;;;;;;;33.90;19.93;98505.16;4954993;28;20035;-76
2022/06/20 10:19:37;;;;;;;1.25;0.80;;;;;;;33.94;19.95;98505.41;4954641;28;20141;-77
2022/06/20 10:22:20;;;;;;;3.47;0.80;;;;;;;33.93;20.36;98504.63;4938412;29;20046;-76
2022/06/20 10:25:01;;;;;;;3.00;0.90;;;;;;;33.99;19.83;98500.81;4954527;28;20051;-77
2022/06/20 10:27:45;;;;;;;2.60;0.93;;;;;;;34.12;20.04;98507.53;4954634;29;20030;-77
2022/06/20 10:30:18;;;;;;;2.10;0.88;;;;;;;34.19;19.87;98502.63;4954732;28;20059;-78
2022/06/20 10:32:52;;;;;;;4.35;0.90;;;;;;;34.28;19.61;98502.88;4938637;29;20035;-76
2022/06/20 10:35:19;;;;;;;3.15;0.82;;;;;;;34.23;19.48;98494.78;4954278;28;20062;-76
2022/06/20 10:38:00;;;;;;;2.87;0.83;;;;;;;34.24;19.51;98496.41;4954437;29;20028;-75
2022/06/20 10:40:50;;;;;;;4.00;1.10;;;;;;;34.13;19.53;98498.31;4953548;28;20395;-76
2022/06/20 10:43:55;;;;;;;4.10;0.80;;;;;;;34.13;19.82;98492.06;4954507;29;20043;-76
2022/06/20 10:46:30;;;;;;;6.15;0.93;;;;;;;34.09;19.80;98499.94;4953734;29;20031;-77
2022/06/20 10:49:11;;;;;;;1.52;0.70;;;;;;;34.06;20.46;98485.09;5002835;28;20046;-77
2022/06/20 10:52:02;;;;;;;1.50;0.70;;;;;;;33.99;20.38;98492.69;5013187;28;20103;-76
2022/06/20 10:54:52;;;;;;;1.33;0.90;;;;;;;33.96;21.00;98487.03;5014830;28;20433;-76
2022/06/20 10:57:39;;;;;;;2.28;0.90;;;;;;;33.93;21.38;98480.25;5030011;28;20034;-78
2022/06/20 11:00:05;;;;;;;4.28;1.00;;;;;;;34.07;21.36;98486.69;5014409;28;20044;-78
2022/06/20 11:02:54;;;;;;;3.10;0.93;;;;;;;34.16;21.45;98488.81;5014328;28;20449;-75
2022/06/20 11:05:53;;;;;;;3.88;0.80;;;;;;;34.23;20.97;98475.81;5014236;28;20036;-77
2022/06/20 11:08:29;;;;;;;1.73;0.80;;;;;;;34.34;21.35;98480.09;4999387;28;20489;-76
2022/06/20 11:11:13;;;;;;;1.58;0.80;;;;;;;34.45;21.49;98478.13;5029506;28;20033;-78
2022/06/20 11:13:49;;;;;;;4.25;0.90;;;;;;;34.52;21.17;98464.28;5014178;28;20029;-78
2022/06/20 11:16:24;;;;;;;2.90;1.10;;;;;;;34.58;21.63;98474.78;5013086;28;20045;-77
2022/06/20 11:18:55;;;;;;;3.65;0.85;;;;;;;34.58;21.56;98468.56;5014254;28;20504;-77
2022/06/20 11:21:38;;;;;;;2.25;0.75;;;;;;;34.59;21.21;98472.91;5013863;28;20037;-78
2022/06/20 11:24:06;;;;;;;2.70;0.80;;;;;;;34.47;21.30;98464.31;4996757;28;20500;-78
2022/06/20 11:26:34;;;;;;;2.20;0.70;;;;;;;34.32;21.59;98463.31;5029543;28;20037;-77
2022/06/20 11:29:03;;;;;;;;;;;;;;;34.20;20.73;98469.03;5013054;28;20030;-76
2022/06/20 11:31:41;;;;;;;1.67;0.70;;;;;;;34.02;20.34;98459.63;5013003;28;19910;-77
2022/06/20 11:34:12;;;;;;;4.43;0.80;;;;;;;33.87;20.75;98462.41;5013932;28;20041;-76
2022/06/20 11:36:57;;;;;;;2.63;0.90;;;;;;;33.75;21.47;98459.19;5028971;28;20136;-78
2022/06/20 11:39:43;;;;;;;6.65;1.00;;;;;;;33.60;21.78;98454.63;5013816;28;20030;-78
2022/06/20 11:42:22;;;;;;;1.30;0.75;;;;;;;33.66;21.30;98454.31;5029100;28;20057;-78
2022/06/20 11:44:57;;;;;;;1.58;0.80;;;;;;;33.68;21.18;98441.34;5012657;28;20030;-78
2022/06/20 11:47:34;;;;;;;3.60;0.70;;;;;;;33.69;20.94;98434.84;5029405;28;20054;-77
2022/06/20 11:50:13;;;;;;;1.45;0.60;;;;;;;33.72;20.93;98444.34;4995576;28;20049;-78
2022/06/20 11:52:51;;;;;;;1.60;0.70;;;;;;;33.77;20.19;98432.69;5013362;28;20570;-77
2022/06/20 11:55:23;;;;;;;1.90;0.57;;;;;;;33.79;19.89;98427.78;5012944;28;20034;-76
2022/06/20 11:58:16;;;;;;;3.22;0.60;;;;;;;33.83;20.17;98410.72;5028488;28;20033;-75
2022/06/20 12:00:48;;;;;;;1.33;0.70;;;;;;;33.83;19.97;98401.81;4972592;28;20042;-75
2022/06/20 12:03:20;;;;;;;3.00;0.70;;;;;;;33.91;19.57;98403.13;4955746;28;20049;-76
2022/06/20 12:06:04;;;;;;;4.22;0.70;;;;;;;33.87;19.85;98402.84;4972143;28;20043;-76
2022/06/20 12:08:34;;;;;;;1.40;0.50;;;;;;;33.95;20.19;98412.28;4955354;28;20054;-75
2022/06/20 12:11:04;;;;;;;1.83;0.60;;;;;;;34.04;20.26;98408.72;4971937;28;20039;-75
2022/06/20 12:13:39;;;;;;;3.53;0.70;;;;;;;34.08;19.52;98409.00;4971904;28;20038;-76
2022/06/20 12:16:07;;;;;;;3.13;0.80;;;;;;;34.04;19.18;98407.91;4971952;28;20059;-76